createdAt,value
2022-08-26T00:01:44.294Z,12.9
2022-08-26T00:03:42.967Z,12.8
2022-08-26T00:05:42.923Z,13.1
2022-08-26T00:07:43.423Z,12.9
2022-08-26T00:09:42.935Z,13.2
2022-08-26T00:11:42.936Z,13.5
2022-08-26T00:13:46.542Z,13.1
2022-08-26T00:15:42.938Z,13.3
2022-08-26T00:17:42.937Z,13.3
2022-08-26T00:19:42.937Z,13.3
2022-08-26T00:21:42.936Z,13.5
2022-08-26T00:23:42.945Z,13.4
2022-08-26T00:25:42.943Z,12.7
2022-08-26T00:27:42.944Z,13.3
2022-08-26T00:29:42.949Z,13.7
2022-08-26T00:31:42.984Z,13.2
2022-08-26T00:33:42.943Z,13.2
2022-08-26T00:35:42.961Z,13.4
2022-08-26T00:37:42.951Z,13.3
2022-08-26T00:39:42.957Z,13.6
2022-08-26T00:41:42.953Z,13.3
2022-08-26T00:43:46.371Z,13.5
2022-08-26T00:45:43.029Z,13.2
2022-08-26T00:47:42.961Z,13.6
2022-08-26T00:49:42.968Z,13.9
2022-08-26T00:51:42.987Z,13.6
2022-08-26T00:53:42.969Z,13.7
2022-08-26T00:55:42.969Z,13.4
2022-08-26T00:57:42.971Z,13.4
2022-08-26T00:59:43.010Z,13.8
2022-08-26T01:01:43.133Z,14.4
2022-08-26T01:03:42.981Z,14.2
2022-08-26T01:05:42.978Z,14.3
2022-08-26T01:07:42.998Z,14.3
2022-08-26T01:09:42.996Z,14.1
2022-08-26T01:11:42.995Z,14.3
2022-08-26T01:13:42.995Z,14.1
2022-08-26T01:15:42.994Z,14.2
2022-08-26T01:17:43.827Z,14.4
2022-08-26T01:19:43.011Z,14.9
2022-08-26T01:21:43.009Z,14.5
2022-08-26T01:23:43.008Z,14.9
2022-08-26T01:25:43.187Z,14.5
2022-08-26T01:27:43.016Z,14.5
2022-08-26T01:29:43.014Z,14.9
2022-08-26T01:31:43.053Z,14.5
2022-08-26T01:33:43.023Z,14.8
2022-08-26T01:35:43.022Z,14.5
2022-08-26T01:37:43.027Z,14.8
2022-08-26T01:39:43.035Z,15.2
2022-08-26T01:41:43.996Z,15.2
2022-08-26T01:43:43.028Z,14.8
2022-08-26T01:45:43.103Z,14.6
2022-08-26T01:47:43.037Z,14.7
2022-08-26T01:49:43.049Z,14.4
2022-08-26T01:51:43.050Z,14.7
2022-08-26T01:53:43.057Z,14.7
2022-08-26T01:55:43.055Z,14.7
2022-08-26T01:57:43.056Z,14.5
2022-08-26T01:59:43.061Z,15
2022-08-26T02:01:43.066Z,14.8
2022-08-26T02:03:43.110Z,14.3
2022-08-26T02:05:43.072Z,14.6
2022-08-26T02:07:43.075Z,14.4
2022-08-26T02:09:43.071Z,14.7
2022-08-26T02:11:43.075Z,14.7
2022-08-26T02:13:43.079Z,14.7
2022-08-26T02:15:43.078Z,14.6
2022-08-26T02:17:43.079Z,14.8
2022-08-26T02:19:43.087Z,14.8
2022-08-26T02:21:43.090Z,14.8
2022-08-26T02:23:43.096Z,15.1
2022-08-26T02:25:43.101Z,15.3
2022-08-26T02:27:43.102Z,15.1
2022-08-26T02:29:43.111Z,14.7
2022-08-26T02:31:43.261Z,15.4
2022-08-26T02:33:43.363Z,15.3
2022-08-26T02:35:43.118Z,15.6
2022-08-26T02:37:43.130Z,16.1
2022-08-26T02:39:43.125Z,15.7
2022-08-26T02:41:45.223Z,15.7
2022-08-26T02:43:43.130Z,15.9
2022-08-26T02:45:43.134Z,16.4
2022-08-26T02:47:43.132Z,15.5
2022-08-26T02:49:44.317Z,16.6
2022-08-26T02:51:43.189Z,16.2
2022-08-26T02:53:43.148Z,16.1
2022-08-26T02:55:43.148Z,16.4
2022-08-26T02:57:43.152Z,16.7
2022-08-26T02:59:43.159Z,16.5
2022-08-26T03:01:43.191Z,17.3
2022-08-26T03:03:43.172Z,17.2
2022-08-26T03:05:43.165Z,17.4
2022-08-26T03:07:43.168Z,17.9
2022-08-26T03:09:43.177Z,17
2022-08-26T03:11:43.180Z,17.6
2022-08-26T03:13:43.191Z,17.2
2022-08-26T03:15:43.186Z,16.9
2022-08-26T03:17:43.195Z,17.8
2022-08-26T03:19:43.192Z,18.2
2022-08-26T03:21:43.200Z,17.3
2022-08-26T03:23:43.204Z,17.4
2022-08-26T03:25:43.206Z,18
2022-08-26T03:27:43.277Z,17.8
2022-08-26T03:29:43.214Z,16.9
2022-08-26T03:31:43.274Z,17.6
2022-08-26T03:33:43.225Z,18
2022-08-26T03:35:43.228Z,17.5
2022-08-26T03:37:43.228Z,18
2022-08-26T03:39:43.243Z,19.4
2022-08-26T03:41:43.251Z,18.8
2022-08-26T03:43:43.250Z,19.1
2022-08-26T03:45:43.246Z,18.8
2022-08-26T03:47:43.251Z,18.3
2022-08-26T03:49:43.253Z,18.4
2022-08-26T03:51:43.268Z,19.4
2022-08-26T03:53:43.265Z,19.9
2022-08-26T03:55:43.387Z,20.3
2022-08-26T03:57:43.266Z,21.2
2022-08-26T03:59:43.283Z,21.9
2022-08-26T04:01:43.343Z,21.9
2022-08-26T04:03:43.288Z,21.7
2022-08-26T04:05:43.288Z,22.3
2022-08-26T04:07:43.290Z,21.1
2022-08-26T04:09:43.297Z,21.5
2022-08-26T04:11:43.309Z,22.2
2022-08-26T04:13:43.303Z,22
2022-08-26T04:15:43.324Z,21.6
2022-08-26T04:17:43.308Z,22
2022-08-26T04:19:43.320Z,22
2022-08-26T04:21:43.332Z,21.5
2022-08-26T04:23:46.867Z,22.3
2022-08-26T04:25:43.332Z,22.1
2022-08-26T04:27:43.336Z,22.2
2022-08-26T04:29:43.348Z,21.4
2022-08-26T04:31:43.403Z,21.4
2022-08-26T04:33:43.362Z,21.8
2022-08-26T04:35:43.376Z,21.7
2022-08-26T04:37:43.376Z,22.4
2022-08-26T04:39:43.376Z,20.8
2022-08-26T04:41:43.379Z,21
2022-08-26T04:43:43.373Z,19.9
2022-08-26T04:45:43.385Z,20.4
2022-08-26T04:47:43.387Z,20.2
2022-08-26T04:49:43.385Z,19.6
2022-08-26T04:51:43.978Z,19.6
2022-08-26T04:53:43.404Z,20
2022-08-26T04:55:44.988Z,19.4
2022-08-26T04:57:43.415Z,19.8
2022-08-26T04:59:43.425Z,19.3
2022-08-26T05:01:43.506Z,19.4
2022-08-26T05:03:43.490Z,19.2
2022-08-26T05:05:43.451Z,19.2
2022-08-26T05:07:43.454Z,18.8
2022-08-26T05:09:43.455Z,18.3
2022-08-26T05:11:43.461Z,18.4
2022-08-26T05:13:43.457Z,18.3
2022-08-26T05:15:43.523Z,17.9
2022-08-26T05:17:43.470Z,18.8
2022-08-26T05:19:43.482Z,17.7
2022-08-26T05:21:43.493Z,17.9
2022-08-26T05:23:43.489Z,18.2
2022-08-26T05:25:43.503Z,17.9
2022-08-26T05:27:43.505Z,18.1
2022-08-26T05:29:43.506Z,17.4
2022-08-26T05:31:43.519Z,17.4
2022-08-26T05:33:43.530Z,18.1
2022-08-26T05:35:43.512Z,17.9
2022-08-26T05:37:43.522Z,17.6
2022-08-26T05:39:50.936Z,17.7
2022-08-26T05:41:44.714Z,16.8
2022-08-26T05:43:43.531Z,17.1
2022-08-26T05:45:45.433Z,17.2
2022-08-26T05:47:43.613Z,16.4
2022-08-26T05:49:43.731Z,16.7
2022-08-26T05:51:43.562Z,16.2
2022-08-26T05:53:43.839Z,15.8
2022-08-26T05:55:43.551Z,15.6
2022-08-26T05:57:43.560Z,15
2022-08-26T05:59:43.563Z,15.2
2022-08-26T06:01:43.724Z,14.8
2022-08-26T06:03:43.569Z,14.2
2022-08-26T06:05:43.567Z,14.1
2022-08-26T06:07:43.572Z,14.1
2022-08-26T06:09:43.577Z,13.1
2022-08-26T06:11:43.591Z,13.7
2022-08-26T06:13:43.587Z,13.2
2022-08-26T06:15:43.611Z,12.7
2022-08-26T06:17:43.587Z,12.6
2022-08-26T06:19:43.587Z,12.4
2022-08-26T06:21:43.600Z,12.1
2022-08-26T06:23:43.588Z,12.1
2022-08-26T06:25:43.591Z,11.9
2022-08-26T06:27:43.595Z,11.8
2022-08-26T06:29:43.598Z,12.2
2022-08-26T06:31:43.615Z,11.7
2022-08-26T06:33:43.602Z,11.7
2022-08-26T06:35:43.603Z,12
2022-08-26T06:37:43.605Z,12.1
2022-08-26T06:39:43.602Z,12
2022-08-26T06:41:43.617Z,12.2
2022-08-26T06:43:43.617Z,11.6
2022-08-26T06:45:43.608Z,11.4
2022-08-26T06:47:43.628Z,11.4
2022-08-26T06:49:44.272Z,11.7
2022-08-26T06:51:43.630Z,11.4
2022-08-26T06:53:43.616Z,11.3
2022-08-26T06:55:43.884Z,11
2022-08-26T06:57:43.619Z,11.6
2022-08-26T06:59:43.626Z,10.8
2022-08-26T07:01:43.737Z,11.1
2022-08-26T07:03:43.643Z,11.2
2022-08-26T07:05:43.648Z,10.4
2022-08-26T07:07:43.649Z,10.6
2022-08-26T07:09:43.652Z,10.5
2022-08-26T07:11:43.679Z,10.1
2022-08-26T07:13:43.669Z,10.4
2022-08-26T07:15:43.736Z,9.9
2022-08-26T07:17:43.683Z,10.5
2022-08-26T07:19:43.690Z,10
2022-08-26T07:21:43.706Z,9.6
2022-08-26T07:23:43.699Z,9.7
2022-08-26T07:25:43.716Z,9.9
2022-08-26T07:27:43.725Z,9.4
2022-08-26T07:29:43.736Z,9.6
2022-08-26T07:31:43.749Z,9.5
2022-08-26T07:33:43.750Z,9.2
2022-08-26T07:35:43.760Z,9.2
2022-08-26T07:37:43.767Z,9.5
2022-08-26T07:39:43.775Z,9.2
2022-08-26T07:41:43.815Z,8.9
2022-08-26T07:43:43.803Z,9.2
2022-08-26T07:45:43.805Z,9.4
2022-08-26T07:47:43.821Z,9.5
2022-08-26T07:49:43.843Z,9.2
2022-08-26T07:51:43.841Z,8.3
2022-08-26T07:53:43.839Z,8.5
2022-08-26T07:55:43.852Z,8.7
2022-08-26T07:57:43.859Z,8.5
2022-08-26T07:59:43.868Z,8.6
2022-08-26T08:01:44.935Z,8.6
2022-08-26T08:03:43.883Z,8.5
2022-08-26T08:05:43.898Z,8.3
2022-08-26T08:07:44.550Z,8.3
2022-08-26T08:09:43.906Z,8.4
2022-08-26T08:11:43.932Z,8
2022-08-26T08:13:43.926Z,7.8
2022-08-26T08:15:43.931Z,7.8
2022-08-26T08:17:43.945Z,8.5
2022-08-26T08:19:43.940Z,7.8
2022-08-26T08:21:43.985Z,8
2022-08-26T08:23:43.963Z,7.8
2022-08-26T08:25:43.972Z,7.8
2022-08-26T08:27:43.982Z,8.2
2022-08-26T08:29:43.994Z,8.2
2022-08-26T08:31:58.780Z,7.7
2022-08-26T08:33:44.017Z,7.9
2022-08-26T08:35:44.024Z,8.1
2022-08-26T08:37:44.036Z,7.9
2022-08-26T08:39:44.048Z,7.6
2022-08-26T08:41:44.072Z,7.9
2022-08-26T08:43:44.071Z,7.6
2022-08-26T08:45:44.168Z,7.7
2022-08-26T08:47:44.098Z,7.3
2022-08-26T08:49:44.099Z,7.5
2022-08-26T08:51:44.148Z,7.4
2022-08-26T08:53:44.137Z,7.7
2022-08-26T08:55:44.143Z,7.9
2022-08-26T08:57:44.152Z,8
2022-08-26T08:59:44.157Z,8
2022-08-26T09:01:44.530Z,7.8
2022-08-26T09:03:44.167Z,7.8
2022-08-26T09:05:48.168Z,7.9
2022-08-26T09:07:44.183Z,8.1
2022-08-26T09:09:44.181Z,7.8
2022-08-26T09:11:44.186Z,7.4
2022-08-26T09:13:44.187Z,7.5
2022-08-26T09:15:44.196Z,8
2022-08-26T09:17:44.212Z,7.9
2022-08-26T09:19:44.222Z,7.8
2022-08-26T09:21:44.231Z,8.1
2022-08-26T09:23:44.607Z,7.6
2022-08-26T09:25:44.277Z,7.8
2022-08-26T09:27:44.260Z,8.3
2022-08-26T09:29:44.363Z,7.8
2022-08-26T09:31:44.285Z,8
2022-08-26T09:33:44.297Z,8.1
2022-08-26T09:35:44.300Z,8
2022-08-26T09:39:44.320Z,7.6
2022-08-26T09:41:44.330Z,8.2
2022-08-26T09:43:44.347Z,7.6
2022-08-26T09:45:44.374Z,7.6
2022-08-26T09:47:44.364Z,7.7
2022-08-26T09:49:44.372Z,7.7
2022-08-26T09:51:44.380Z,8
2022-08-26T09:53:44.383Z,8.2
2022-08-26T09:55:44.513Z,8.1
2022-08-26T09:57:44.410Z,7.8
2022-08-26T09:59:44.410Z,7.4
2022-08-26T10:01:44.843Z,7.7
2022-08-26T10:03:44.501Z,7.8
2022-08-26T10:05:44.421Z,7.4
2022-08-26T10:07:44.470Z,7.5
2022-08-26T10:09:44.437Z,7.6
2022-08-26T10:11:44.445Z,7.4
2022-08-26T10:13:44.459Z,7.7
2022-08-26T10:15:48.684Z,7.5
2022-08-26T10:17:44.481Z,7.6
2022-08-26T10:19:56.404Z,7.8
2022-08-26T10:21:44.497Z,8
2022-08-26T10:23:45.048Z,7.3
2022-08-26T10:25:44.521Z,7.8
2022-08-26T10:27:48.376Z,7.1
2022-08-26T10:29:44.545Z,7.4
2022-08-26T10:31:44.567Z,7.3
2022-08-26T10:33:44.561Z,7.7
2022-08-26T10:35:44.577Z,7.3
2022-08-26T10:37:44.592Z,7.1
2022-08-26T10:39:44.594Z,7.1
2022-08-26T10:41:44.599Z,7.1
2022-08-26T10:43:44.611Z,7.4
2022-08-26T10:45:44.702Z,7.1
2022-08-26T10:47:44.618Z,7
2022-08-26T10:49:44.632Z,7
2022-08-26T10:51:45.608Z,7.5
2022-08-26T10:53:44.650Z,6.7
2022-08-26T10:55:44.670Z,7.2
2022-08-26T10:57:44.668Z,7.1
2022-08-26T10:59:44.669Z,6.8
2022-08-26T11:01:44.676Z,6.9
2022-08-26T11:03:44.694Z,6.9
2022-08-26T11:05:44.689Z,6.8
2022-08-26T11:07:44.712Z,7
2022-08-26T11:09:44.788Z,6.8
2022-08-26T11:11:44.718Z,6.5
2022-08-26T11:13:44.730Z,7.2
2022-08-26T11:15:44.748Z,6.7
2022-08-26T11:17:44.754Z,6.8
2022-08-26T11:20:00.050Z,7
2022-08-26T11:21:44.777Z,7.3
2022-08-26T11:23:44.799Z,6.8
2022-08-26T11:25:44.807Z,6.8
2022-08-26T11:27:44.820Z,6.4
2022-08-26T11:29:44.833Z,6.9
2022-08-26T11:31:44.868Z,6.8
2022-08-26T11:33:44.854Z,6.8
2022-08-26T11:35:44.856Z,7.1
2022-08-26T11:37:44.857Z,6.7
2022-08-26T11:39:46.847Z,6.7
2022-08-26T11:41:44.883Z,6.4
2022-08-26T11:43:44.895Z,6.1
2022-08-26T11:45:44.993Z,6.6
2022-08-26T11:47:44.923Z,6
2022-08-26T11:49:44.932Z,6.3
2022-08-26T11:51:47.729Z,5.8
2022-08-26T11:53:44.942Z,6
2022-08-26T11:55:44.949Z,6.2
2022-08-26T11:57:44.953Z,5.9
2022-08-26T11:59:44.965Z,5.7
2022-08-26T12:01:44.972Z,5.8
2022-08-26T12:03:45.115Z,5.8
2022-08-26T12:05:45.003Z,6
2022-08-26T12:07:45.010Z,5.5
2022-08-26T12:09:45.031Z,5.5
2022-08-26T12:11:45.043Z,5.6
2022-08-26T12:13:45.054Z,5.5
2022-08-26T12:15:45.063Z,5.4
2022-08-26T12:17:45.077Z,5.6
2022-08-26T12:19:45.094Z,5.2
2022-08-26T12:21:45.102Z,6
2022-08-26T12:23:45.104Z,5.5
2022-08-26T12:25:45.107Z,5.6
2022-08-26T12:27:45.110Z,5.4
2022-08-26T12:29:48.433Z,5.6
2022-08-26T12:31:45.148Z,5.2
2022-08-26T12:33:45.125Z,5.3
2022-08-26T12:35:45.141Z,5.6
2022-08-26T12:37:45.152Z,5.4
2022-08-26T12:39:45.148Z,5.3
2022-08-26T12:41:45.155Z,5.6
2022-08-26T12:43:45.175Z,5.6
2022-08-26T12:45:45.223Z,5.9
2022-08-26T12:47:45.176Z,5.7
2022-08-26T12:49:45.165Z,5.9
2022-08-26T12:51:45.169Z,6.1
2022-08-26T12:53:45.177Z,5.6
2022-08-26T12:55:45.340Z,5.8
2022-08-26T12:57:45.201Z,5.7
2022-08-26T12:59:45.207Z,5.9
2022-08-26T13:01:45.338Z,5.9
2022-08-26T13:03:45.208Z,5.5
2022-08-26T13:05:45.213Z,5.2
2022-08-26T13:07:45.235Z,5.5
2022-08-26T13:09:45.236Z,6.1
2022-08-26T13:11:45.246Z,5.7
2022-08-26T13:13:45.248Z,5.8
2022-08-26T13:15:45.252Z,5.9
2022-08-26T13:17:45.253Z,6.7
2022-08-26T13:19:45.277Z,7
2022-08-26T13:21:45.263Z,6.7
2022-08-26T13:23:45.278Z,6.6
2022-08-26T13:25:45.275Z,6.4
2022-08-26T13:27:45.279Z,6.5
2022-08-26T13:29:45.278Z,6.2
2022-08-26T13:31:45.366Z,6.8
2022-08-26T13:33:45.298Z,6.8
2022-08-26T13:35:45.319Z,6.7
2022-08-26T13:37:45.318Z,6.8
2022-08-26T13:39:45.332Z,6.8
2022-08-26T13:41:45.336Z,6.7
2022-08-26T13:43:45.333Z,6.3
2022-08-26T13:45:45.330Z,6.7
2022-08-26T13:47:45.338Z,6.6
2022-08-26T13:49:45.341Z,6.7
2022-08-26T13:51:45.355Z,6.7
2022-08-26T13:53:45.372Z,7.1
2022-08-26T13:55:45.370Z,6.9
2022-08-26T13:57:45.383Z,6.7
2022-08-26T13:59:45.385Z,6.8
2022-08-26T14:01:45.391Z,6.6
2022-08-26T14:03:45.456Z,6.1
2022-08-26T14:05:45.413Z,6.3
2022-08-26T14:07:45.419Z,5.9
2022-08-26T14:09:45.428Z,5.9
2022-08-26T14:11:50.779Z,6.2
2022-08-26T14:13:45.427Z,5.8
2022-08-26T14:15:45.466Z,5.8
2022-08-26T14:17:45.443Z,5.9
2022-08-26T14:19:45.458Z,5.9
2022-08-26T14:21:45.457Z,6.2
2022-08-26T14:23:45.465Z,5.5
2022-08-26T14:25:45.491Z,6
2022-08-26T14:27:45.500Z,6.2
2022-08-26T14:29:45.512Z,6
2022-08-26T14:31:45.548Z,6
2022-08-26T14:33:45.514Z,6.2
2022-08-26T14:35:48.029Z,6.5
2022-08-26T14:37:45.516Z,6.6
2022-08-26T14:39:45.520Z,7.2
2022-08-26T14:41:45.524Z,7.5
2022-08-26T14:43:45.537Z,7.5
2022-08-26T14:45:45.601Z,7.6
2022-08-26T14:47:45.555Z,7.5
2022-08-26T14:49:45.558Z,7.6
2022-08-26T14:51:45.568Z,7.7
2022-08-26T14:53:45.570Z,7.3
2022-08-26T14:55:45.589Z,7.5
2022-08-26T14:57:45.599Z,7.3
2022-08-26T14:59:49.795Z,6.5
2022-08-26T15:01:45.764Z,6.8
2022-08-26T15:03:45.609Z,6.8
2022-08-26T15:05:47.911Z,6.5
2022-08-26T15:07:45.628Z,6.5
2022-08-26T15:09:45.641Z,7.2
2022-08-26T15:11:46.438Z,7
2022-08-26T15:13:45.650Z,3.6
2022-08-26T15:15:45.710Z,4
2022-08-26T15:17:45.677Z,5.1
2022-08-26T15:19:45.674Z,6
2022-08-26T15:21:45.722Z,5.9
2022-08-26T15:23:47.701Z,6.8
2022-08-26T15:25:45.721Z,8.2
2022-08-26T15:27:45.715Z,6.7
2022-08-26T15:29:45.732Z,4.7
2022-08-26T15:31:45.809Z,3.5
2022-08-26T15:33:45.737Z,5.5
2022-08-26T15:35:45.733Z,5.5
2022-08-26T15:37:45.771Z,7.7
2022-08-26T15:39:45.767Z,3.9
2022-08-26T15:41:45.776Z,3.3
2022-08-26T15:43:45.777Z,4.5
2022-08-26T15:45:45.781Z,4.4
2022-08-26T15:47:48.413Z,5.9
2022-08-26T15:49:45.819Z,7
2022-08-26T15:51:46.153Z,6.5
2022-08-26T15:53:45.822Z,7.5
2022-08-26T15:55:45.829Z,8.5
2022-08-26T15:57:45.854Z,11.8
2022-08-26T15:59:45.854Z,13.2
2022-08-26T16:01:45.929Z,13
2022-08-26T16:03:45.869Z,12.7
2022-08-26T16:05:45.928Z,13.1
2022-08-26T16:07:45.880Z,13
2022-08-26T16:09:45.902Z,12.1
2022-08-26T16:11:45.921Z,11.1
2022-08-26T16:13:45.923Z,11.5
2022-08-26T16:15:45.969Z,11.3
2022-08-26T16:17:45.933Z,12.4
2022-08-26T16:19:45.939Z,12.6
2022-08-26T16:21:45.939Z,10.6
2022-08-26T16:23:45.957Z,9.7
2022-08-26T16:25:45.956Z,8.5
2022-08-26T16:27:45.967Z,8.9
2022-08-26T16:29:45.967Z,8.9
2022-08-26T16:31:45.974Z,8.7
2022-08-26T16:33:45.971Z,8.5
2022-08-26T16:35:45.999Z,9.1
2022-08-26T16:37:45.976Z,9.1
2022-08-26T16:39:45.975Z,9.9
2022-08-26T16:41:45.971Z,8.9
2022-08-26T16:43:45.977Z,8.2
2022-08-26T16:45:45.988Z,7.8
2022-08-26T16:47:45.986Z,8.3
2022-08-26T16:49:45.989Z,8.8
2022-08-26T16:51:45.983Z,8.4
2022-08-26T16:53:45.987Z,8.7
2022-08-26T16:55:45.983Z,8.1
2022-08-26T16:57:45.988Z,8.5
2022-08-26T16:59:45.988Z,8.5
2022-08-26T17:01:46.046Z,8
2022-08-26T17:03:45.999Z,7.7
2022-08-26T17:05:46.002Z,7.7
2022-08-26T17:07:45.999Z,7.6
2022-08-26T17:09:46.005Z,7.8
2022-08-26T17:11:45.997Z,7.9
2022-08-26T17:13:46.000Z,9.1
2022-08-26T17:15:46.061Z,9
2022-08-26T17:17:45.999Z,9.5
2022-08-26T17:19:47.143Z,9.1
2022-08-26T17:21:46.003Z,9.3
2022-08-26T17:23:46.012Z,9.6
2022-08-26T17:25:46.019Z,9.4
2022-08-26T17:27:46.123Z,9.1
2022-08-26T17:29:46.012Z,9.1
2022-08-26T17:31:46.071Z,9.2
2022-08-26T17:33:48.969Z,9.3
2022-08-26T17:35:46.024Z,9.4
2022-08-26T17:37:46.020Z,9.9
2022-08-26T17:39:46.024Z,10.1
2022-08-26T17:41:46.028Z,10.1
2022-08-26T17:43:46.032Z,10.4
2022-08-26T17:45:46.034Z,10.6
2022-08-26T17:47:46.029Z,10.3
2022-08-26T17:49:46.030Z,11
2022-08-26T17:51:46.041Z,10.8
2022-08-26T17:53:46.033Z,10.7
2022-08-26T17:55:46.033Z,10.7
2022-08-26T17:57:53.326Z,10.5
2022-08-26T17:59:46.043Z,11
2022-08-26T18:01:46.050Z,10.6
2022-08-26T18:03:46.079Z,10.7
2022-08-26T18:05:46.044Z,11.1
2022-08-26T18:07:46.045Z,10.8
2022-08-26T18:09:46.046Z,11.8
2022-08-26T18:11:46.044Z,12.2
2022-08-26T18:13:47.213Z,11.9
2022-08-26T18:15:46.095Z,12.4
2022-08-26T18:17:46.050Z,11.7
2022-08-26T18:19:46.060Z,12.2
2022-08-26T18:21:46.058Z,11.7
2022-08-26T18:23:46.059Z,12.2
2022-08-26T18:25:46.063Z,12.4
2022-08-26T18:27:46.063Z,11.9
2022-08-26T18:29:46.066Z,11.5
2022-08-26T18:31:46.075Z,12.6
2022-08-26T18:33:46.068Z,12.5
2022-08-26T18:35:46.070Z,12.5
2022-08-26T18:37:46.071Z,12.3
2022-08-26T18:39:46.072Z,12.3
2022-08-26T18:41:46.074Z,12.1
2022-08-26T18:43:46.079Z,12.3
2022-08-26T18:45:46.095Z,12.6
2022-08-26T18:47:46.078Z,12.9
2022-08-26T18:49:46.082Z,13
2022-08-26T18:51:46.083Z,13.9
2022-08-26T18:53:46.089Z,13.9
2022-08-26T18:55:46.089Z,14.9
2022-08-26T18:57:46.091Z,15.9
2022-08-26T18:59:46.093Z,16.7
2022-08-26T19:01:46.152Z,17.7
2022-08-26T19:03:46.093Z,18.5
2022-08-26T19:05:46.100Z,18.9
2022-08-26T19:07:46.102Z,20.1
2022-08-26T19:09:46.114Z,19.2
2022-08-26T19:11:46.167Z,18.5
2022-08-26T19:13:46.118Z,18.6
2022-08-26T19:15:46.118Z,18.3
2022-08-26T19:17:46.119Z,19.1
2022-08-26T19:19:46.126Z,18.3
2022-08-26T19:21:46.129Z,17.6
2022-08-26T19:23:46.129Z,17.8
2022-08-26T19:25:46.138Z,16.7
2022-08-26T19:27:46.141Z,15.9
2022-08-26T19:29:46.143Z,15.3
2022-08-26T19:31:47.224Z,16
2022-08-26T19:33:46.149Z,15.6
2022-08-26T19:35:46.146Z,15.7
2022-08-26T19:37:46.151Z,14.4
2022-08-26T19:39:46.153Z,13.5
2022-08-26T19:41:46.162Z,11.7
2022-08-26T19:43:46.383Z,11.1
2022-08-26T19:45:46.190Z,11.5
2022-08-26T19:47:46.162Z,10.8
2022-08-26T19:49:46.164Z,11.2
2022-08-26T19:51:46.173Z,11.1
2022-08-26T19:53:46.177Z,10
2022-08-26T19:55:46.177Z,9.8
2022-08-26T19:57:46.181Z,9
2022-08-26T19:59:46.184Z,9.5
2022-08-26T20:01:46.189Z,8.9
2022-08-26T20:03:46.230Z,8.9
2022-08-26T20:05:46.193Z,8.8
2022-08-26T20:07:46.195Z,8.8
2022-08-26T20:09:46.195Z,9.3
2022-08-26T20:11:46.324Z,9.4
2022-08-26T20:13:46.209Z,9
2022-08-26T20:15:46.207Z,9.2
2022-08-26T20:17:46.218Z,9.7
2022-08-26T20:19:46.231Z,9.2
2022-08-26T20:21:46.219Z,10.1
2022-08-26T20:23:46.234Z,9.9
2022-08-26T20:25:46.237Z,9.5
2022-08-26T20:27:46.243Z,9
2022-08-26T20:29:46.244Z,7.9
2022-08-26T20:31:46.333Z,7.8
2022-08-26T20:33:46.751Z,7
2022-08-26T20:35:46.255Z,7
2022-08-26T20:37:46.261Z,7.3
2022-08-26T20:39:46.257Z,7
2022-08-26T20:41:46.261Z,6.9
2022-08-26T20:43:46.264Z,6.6
2022-08-26T20:45:46.354Z,6.8
2022-08-26T20:47:46.285Z,6.2
2022-08-26T20:49:46.283Z,5.9
2022-08-26T20:51:46.298Z,6
2022-08-26T20:53:46.305Z,6
2022-08-26T20:55:46.294Z,5.8
2022-08-26T20:57:46.301Z,6.1
2022-08-26T20:59:46.298Z,6
2022-08-26T21:01:46.304Z,5.5
2022-08-26T21:03:46.346Z,5.7
2022-08-26T21:05:46.313Z,5.6
2022-08-26T21:07:46.314Z,6.4
2022-08-26T21:09:46.328Z,5.6
2022-08-26T21:11:46.330Z,5.8
2022-08-26T21:14:04.224Z,5.9
2022-08-26T21:15:46.343Z,6.2
2022-08-26T21:17:46.349Z,6.5
2022-08-26T21:19:46.357Z,6.6
2022-08-26T21:21:46.356Z,6.4
2022-08-26T21:23:46.365Z,6.5
2022-08-26T21:25:46.361Z,5.8
2022-08-26T21:27:46.368Z,5.9
2022-08-26T21:29:46.376Z,5.8
2022-08-26T21:31:47.026Z,6.6
2022-08-26T21:33:46.387Z,6.3
2022-08-26T21:35:46.401Z,6.3
2022-08-26T21:37:46.408Z,6.3
2022-08-26T21:39:46.406Z,5.9
2022-08-26T21:41:46.409Z,6.6
2022-08-26T21:43:46.413Z,5.8
2022-08-26T21:45:46.455Z,6.3
2022-08-26T21:47:46.426Z,7
2022-08-26T21:49:46.425Z,7.1
2022-08-26T21:51:46.422Z,7.6
2022-08-26T21:53:46.423Z,7.9
2022-08-26T21:55:46.435Z,7.5
2022-08-26T21:57:46.450Z,7.7
2022-08-26T21:59:46.447Z,7.4
2022-08-26T22:01:46.460Z,7.3
2022-08-26T22:03:47.198Z,7.3
2022-08-26T22:05:46.476Z,7.8
2022-08-26T22:07:46.476Z,7.7
2022-08-26T22:09:46.487Z,7.5
2022-08-26T22:11:46.488Z,7.9
2022-08-26T22:13:46.493Z,8.2
2022-08-26T22:15:46.496Z,7.9
2022-08-26T22:17:46.506Z,8.2
2022-08-26T22:19:46.837Z,8
2022-08-26T22:21:46.509Z,8.3
2022-08-26T22:23:46.520Z,8.2
2022-08-26T22:25:46.527Z,8
2022-08-26T22:27:46.530Z,8.4
2022-08-26T22:29:46.541Z,8.6
2022-08-26T22:31:46.571Z,8.8
2022-08-26T22:33:46.550Z,9
2022-08-26T22:35:46.557Z,9.1
2022-08-26T22:37:46.564Z,9.4
2022-08-26T22:39:46.565Z,9.2
2022-08-26T22:41:46.559Z,9.7
2022-08-26T22:43:46.572Z,9.4
2022-08-26T22:45:46.601Z,9.6
2022-08-26T22:47:46.579Z,9.3
2022-08-26T22:49:46.593Z,9.2
2022-08-26T22:51:46.607Z,9.4
2022-08-26T22:53:46.609Z,9.1
2022-08-26T22:55:46.613Z,9.4
2022-08-26T22:57:46.619Z,9
2022-08-26T22:59:46.624Z,8.9
2022-08-26T23:01:46.625Z,9.8
2022-08-26T23:03:46.681Z,10
2022-08-26T23:05:46.646Z,10.4
2022-08-26T23:07:46.651Z,11.1
2022-08-26T23:09:46.660Z,11.4
2022-08-26T23:11:46.661Z,11.7
2022-08-26T23:13:46.667Z,12.1
2022-08-26T23:15:46.685Z,12.3
2022-08-26T23:17:46.690Z,12.2
2022-08-26T23:19:46.693Z,12.2
2022-08-26T23:21:46.697Z,12.3
2022-08-26T23:23:46.699Z,12.3
2022-08-26T23:25:46.703Z,13
2022-08-26T23:27:46.698Z,13.1
2022-08-26T23:29:46.701Z,13.3
2022-08-26T23:31:46.757Z,13.5
2022-08-26T23:33:46.711Z,13.9
2022-08-26T23:35:46.719Z,14
2022-08-26T23:37:46.727Z,14.3
2022-08-26T23:39:46.733Z,14.7
2022-08-26T23:41:46.738Z,14.9
2022-08-26T23:43:46.749Z,15.1
2022-08-26T23:45:46.777Z,14.9
2022-08-26T23:47:46.759Z,14.7
2022-08-26T23:49:46.767Z,14.9
2022-08-26T23:51:46.776Z,15.8
2022-08-26T23:53:46.786Z,16
2022-08-26T23:55:46.781Z,16
2022-08-26T23:57:46.786Z,16.1
2022-08-26T23:59:46.789Z,16.7
